Airfield :







YOU CAN JOIN US ON...

 
LOGIN :

Register | Disclaimer

   EN    FR    IT 

 









Legend :    VFR   Marginal VFR   IFR   Intensive IFR   Very Intensive IFR
Visi :
Ceiling :
>= 8 km
>= 3000ft
5 to 8 km
1000 to 3000 ft
1500m to 5 km
500 to 1000 ft
800 to 1500m
200 to 500 ft
< 800m
< 200 ft
Symbols :   Thunderstorms  Fog  Heavy snow  Heavy precipitations  Wind > 20 kt






- Airport Elevation : 108 ft
- IATA code : YGP


CYGP - Gaspé

CURRENT METAR :
  • 222300Z VRB02KT 15SM OVC120 10/07 A2994 RMK AC8 PRESFR SLP140

EXPIRED METARs :
  • 222200Z 11008KT 15SM OVC150 10/07 A3000 RMK AC8 SLP162
  • 222100Z 08005KT 15SM OVC170 11/06 A3002 RMK AC8 SLP168

TAF TAF CYGP
Valid from the 22 at 20:00 until the 23 at 08:00 UTC


221938Z 2220/2308 08010KT P6SM OVC150
FM222300 08008KT P6SM -SHRA OVC070
FM230100 05008G18KT 5SM -RA BR OVC015
FM230400 02010G20KT 2SM -RA BR OVC008
PROB30 2304/2308 OVC002 RMK NXT FCST BY 230200Z
CZUL FIR / North America



MET'MAP, your aeronautical weather chart ! - Copyright ORBIFLY December 2007 - Disclaimer

ORBIFLY MET'MAP TEAM :

Programming & Development : Alexandra Zaïnal
Concept & original design : Baudouin d'Aumeries
Assistance for programming : Marc-Olivier Méhu
Technical & hardware support : Manuel Goepfert

Contact : metmap@orbifly.com




SOURCES & CREDITS :

   NOAA